Kofu, Japan

10:26 PM JST on December 25, 2014 (GMT +0900)
IYAMANAS2 | Change Station
CLOSE
Current Station
Personal Weather Station
Location: Chuo, YAMANASHI
Elevation: 820 ft
Nearby Weather Stations

Elev 820 ft 35.59 °N, 138.52 °E | Updated 7 minutes ago

Mostly Cloudy
Mostly Cloudy
33.8 °F
Feels Like 34 °F
N
0.0
Wind Variable Wind from East
Gusts 2.0 mph

Today
High -- | Low -- °F
--% Chance of Precip.
Yesterday
High -- | Low -- °F
Precip. -- in
6:53 AM 4:38 PM
Waxing Crescent, 16% visible
Pressure 30.06 in
Visibility 10.0 miles
Clouds Mostly Cloudy 10000 ft
Windchill 34 °F
Dew Point -0 °F
Humidity 23%
Rainfall 0.00 in
Snow Depth Not available.
UV 0 out of 12
Pollen Not available.
Air Quality Not available.
Flu Activity Not available.
METAR RJTY 251258Z AUTO 03002KT 10SM BKN100 01/M04 A3002 RMK AO2 SLP177 T00081037 FZRANO

More Conditions Fewer Conditions

Pressure 30.06 in
Visibility 10.0 miles
Clouds Mostly Cloudy 10000 ft
Windchill 34 °F
Dew Point -0 °F
Humidity 23%
Rainfall 0.00 in
Snow Depth Not available.
UV 0 out of 12
Pollen Not available.
Air Quality Not available.
Flu Activity Not available.
METAR RJTY 251258Z AUTO 03002KT 10SM BKN100 01/M04 A3002 RMK AO2 SLP177 T00081037 FZRANO

More Conditions Fewer Conditions

10-Day Weather Forecast

Almanac

Astronomy

Dec. 25, 2014 Rise Set
Actual Time
Civil Twilight
Nautical Twilight
Astronomical Twilight
Moon
Length of Visible Light
Length of Day
Tomorrow will be .
, % of the Moon is Illuminated

Today's Extremes

Country Highs Country Lows

Community

WunderPhotos

Upload Photos

1,780,271 photos uploaded!

WunderBlogs® & News

Nearby

Air Quality

  Air Quality AQ Index Pollutant
Not available.

Snow Depth

Station Depth Elevation

Earthquake Activity

City Distance Mag. Time & Date
Minimum magnitude displayed is 2.5.

Coastal Water Temperatures

Place Temperature

Nearby Weather Stations